createdAt,value
2019-06-26T00:00:24.271Z,26.90
2019-06-26T00:02:53.641Z,26.90
2019-06-26T00:05:23.359Z,26.82
2019-06-26T00:07:52.795Z,26.81
2019-06-26T00:10:22.594Z,26.78
2019-06-26T00:12:53.469Z,26.75
2019-06-26T00:15:22.866Z,26.72
2019-06-26T00:17:52.348Z,26.68
2019-06-26T00:20:21.925Z,26.60
2019-06-26T00:22:51.364Z,26.55
2019-06-26T00:25:20.732Z,26.51
2019-06-26T00:27:50.435Z,26.45
2019-06-26T00:30:20.006Z,26.44
2019-06-26T00:32:49.375Z,26.46
2019-06-26T00:35:18.788Z,26.45
2019-06-26T00:37:48.389Z,26.41
2019-06-26T00:40:18.222Z,26.38
2019-06-26T00:42:47.642Z,26.33
2019-06-26T00:45:17.081Z,26.28
2019-06-26T00:47:46.492Z,26.28
2019-06-26T00:50:15.862Z,26.26
2019-06-26T00:52:45.401Z,26.27
2019-06-26T00:55:14.769Z,26.26
2019-06-26T00:57:45.199Z,26.26
2019-06-26T01:00:15.035Z,26.24
2019-06-26T01:02:44.671Z,26.22
2019-06-26T01:05:14.674Z,26.22
2019-06-26T01:07:44.449Z,26.21
2019-06-26T01:10:14.306Z,26.21
2019-06-26T01:12:43.695Z,26.20
2019-06-26T01:15:13.838Z,26.20
2019-06-26T01:17:43.517Z,26.18
2019-06-26T01:20:13.411Z,26.16
2019-06-26T01:22:42.835Z,26.14
2019-06-26T01:25:13.137Z,26.11
2019-06-26T01:27:42.659Z,26.11
2019-06-26T01:30:20.401Z,26.09
2019-06-26T01:32:49.771Z,26.07
2019-06-26T01:35:19.552Z,26.07
2019-06-26T01:37:48.970Z,26.04
2019-06-26T01:40:18.846Z,25.98
2019-06-26T01:42:48.264Z,25.98
2019-06-26T01:45:17.856Z,25.94
2019-06-26T01:47:47.821Z,25.94
2019-06-26T01:50:17.624Z,25.95
2019-06-26T01:52:47.045Z,25.93
2019-06-26T01:55:16.741Z,25.92
2019-06-26T01:57:46.141Z,25.90
2019-06-26T02:00:16.443Z,25.86
2019-06-26T02:02:45.844Z,25.84
2019-06-26T02:05:15.513Z,25.81
2019-06-26T02:07:44.934Z,25.78
2019-06-26T02:10:15.949Z,25.75
2019-06-26T02:12:46.763Z,25.73
2019-06-26T02:15:16.268Z,25.71
2019-06-26T02:17:45.667Z,25.71
2019-06-26T02:20:15.040Z,25.70
2019-06-26T02:22:44.587Z,25.70
2019-06-26T02:25:15.730Z,25.69
2019-06-26T02:27:45.178Z,25.66
2019-06-26T02:30:15.106Z,25.65
2019-06-26T02:32:44.700Z,25.64
2019-06-26T02:35:14.238Z,25.64
2019-06-26T02:37:43.658Z,25.66
2019-06-26T02:40:13.169Z,25.65
2019-06-26T02:42:42.939Z,25.63
2019-06-26T02:45:13.890Z,25.61
2019-06-26T02:47:44.125Z,25.60
2019-06-26T02:50:13.789Z,25.59
2019-06-26T02:52:43.190Z,25.57
2019-06-26T02:55:12.991Z,25.51
2019-06-26T02:57:42.733Z,25.51
2019-06-26T03:00:13.145Z,25.47
2019-06-26T03:02:43.002Z,25.43
2019-06-26T03:05:13.094Z,25.42
2019-06-26T03:07:42.704Z,25.39
2019-06-26T03:10:13.354Z,25.35
2019-06-26T03:12:42.899Z,25.34
2019-06-26T03:15:13.126Z,25.34
2019-06-26T03:17:54.793Z,25.26
2019-06-26T03:20:14.166Z,25.33
2019-06-26T03:22:43.839Z,25.33
2019-06-26T03:25:13.262Z,25.29
2019-06-26T03:27:42.834Z,25.25
2019-06-26T03:30:13.534Z,25.23
2019-06-26T03:32:42.917Z,25.19
2019-06-26T03:35:13.124Z,25.07
2019-06-26T03:37:43.316Z,25.07
2019-06-26T03:40:13.305Z,25.10
2019-06-26T03:42:42.883Z,25.08
2019-06-26T03:45:25.145Z,25.08
2019-06-26T03:47:45.834Z,25.09
2019-06-26T03:50:16.352Z,25.09
2019-06-26T03:52:45.771Z,25.08
2019-06-26T03:55:15.218Z,25.07
2019-06-26T03:57:44.968Z,25.08
2019-06-26T04:00:15.975Z,25.08
2019-06-26T04:02:45.436Z,25.10
2019-06-26T04:05:15.136Z,25.13
2019-06-26T04:07:44.774Z,25.17
2019-06-26T04:10:15.058Z,25.21
2019-06-26T04:12:44.458Z,25.23
2019-06-26T04:15:14.193Z,25.27
2019-06-26T04:17:43.896Z,25.30
2019-06-26T04:20:13.385Z,25.33
2019-06-26T04:22:43.101Z,25.39
2019-06-26T04:25:13.303Z,25.48
2019-06-26T04:27:43.020Z,25.48
2019-06-26T04:30:12.814Z,25.55
2019-06-26T04:32:42.191Z,25.63
2019-06-26T04:35:13.514Z,25.67
2019-06-26T04:37:42.907Z,25.72
2019-06-26T04:40:13.377Z,25.75
2019-06-26T04:42:43.028Z,25.79
2019-06-26T04:45:13.594Z,25.83
2019-06-26T04:47:43.007Z,25.86
2019-06-26T04:50:15.181Z,25.95
2019-06-26T04:52:44.910Z,25.95
2019-06-26T04:55:14.649Z,25.99
2019-06-26T04:57:44.053Z,26.05
2019-06-26T05:00:15.008Z,26.11
2019-06-26T05:02:50.544Z,26.20
2019-06-26T05:05:20.233Z,26.27
2019-06-26T05:07:50.000Z,26.36
2019-06-26T05:10:19.368Z,26.46
2019-06-26T05:12:49.097Z,26.57
2019-06-26T05:15:18.696Z,26.62
2019-06-26T05:17:48.164Z,26.68
2019-06-26T05:20:18.466Z,26.77
2019-06-26T05:22:47.912Z,26.86
2019-06-26T05:25:19.481Z,26.95
2019-06-26T05:27:49.176Z,27.00
2019-06-26T05:30:18.593Z,27.06
2019-06-26T05:32:48.013Z,27.11
2019-06-26T05:35:17.557Z,27.08
2019-06-26T05:37:46.941Z,27.11
2019-06-26T05:40:17.002Z,27.24
2019-06-26T05:42:46.433Z,27.36
2019-06-26T05:45:16.430Z,27.45
2019-06-26T05:47:46.098Z,27.51
2019-06-26T05:50:16.826Z,27.58
2019-06-26T05:52:46.246Z,27.71
2019-06-26T05:55:15.728Z,27.76
2019-06-26T05:57:48.316Z,27.87
2019-06-26T06:00:17.988Z,27.96
2019-06-26T06:02:47.387Z,28.03
2019-06-26T06:05:17.118Z,28.12
2019-06-26T06:07:46.546Z,28.13
2019-06-26T06:10:16.575Z,28.19
2019-06-26T06:12:46.280Z,28.27
2019-06-26T06:15:17.725Z,28.30
2019-06-26T06:17:47.093Z,28.40
2019-06-26T06:20:19.749Z,28.50
2019-06-26T06:22:49.168Z,28.58
2019-06-26T06:25:18.857Z,28.68
2019-06-26T06:27:48.270Z,28.73
2019-06-26T06:30:17.735Z,28.66
2019-06-26T06:32:47.186Z,28.61
2019-06-26T06:35:16.630Z,28.67
2019-06-26T06:37:46.172Z,28.78
2019-06-26T06:40:15.705Z,28.85
2019-06-26T06:42:45.379Z,28.85
2019-06-26T06:45:14.803Z,28.89
2019-06-26T06:47:44.270Z,28.95
2019-06-26T06:50:13.777Z,29.09
2019-06-26T06:52:43.270Z,29.08
2019-06-26T06:55:13.682Z,29.03
2019-06-26T06:57:43.627Z,29.11
2019-06-26T07:00:14.413Z,29.12
2019-06-26T07:02:43.987Z,29.15
2019-06-26T07:05:13.657Z,29.20
2019-06-26T07:07:43.294Z,29.29
2019-06-26T07:10:13.602Z,29.46
2019-06-26T07:12:43.016Z,29.59
2019-06-26T07:15:14.273Z,29.64
2019-06-26T07:17:43.761Z,29.73
2019-06-26T07:20:13.814Z,29.87
2019-06-26T07:22:43.310Z,29.94
2019-06-26T07:25:13.936Z,30.15
2019-06-26T07:27:43.467Z,30.15
2019-06-26T07:30:14.110Z,30.25
2019-06-26T07:32:43.510Z,30.35
2019-06-26T07:35:14.135Z,30.47
2019-06-26T07:37:43.505Z,30.41
2019-06-26T07:40:14.060Z,30.43
2019-06-26T07:42:44.614Z,30.58
2019-06-26T07:45:14.419Z,30.70
2019-06-26T07:47:44.427Z,30.79
2019-06-26T07:50:14.118Z,30.87
2019-06-26T07:52:43.523Z,30.91
2019-06-26T07:55:13.808Z,31.09
2019-06-26T07:57:43.554Z,31.22
2019-06-26T08:00:14.431Z,31.33
2019-06-26T08:02:43.907Z,31.38
2019-06-26T08:05:14.582Z,31.43
2019-06-26T08:07:43.998Z,31.40
2019-06-26T08:10:14.992Z,31.43
2019-06-26T08:12:44.557Z,31.40
2019-06-26T08:15:14.040Z,31.50
2019-06-26T08:17:59.208Z,31.62
2019-06-26T08:20:16.398Z,31.78
2019-06-26T08:22:45.771Z,31.90
2019-06-26T08:25:15.976Z,32.00
2019-06-26T08:27:45.608Z,32.05
2019-06-26T08:30:15.998Z,32.17
2019-06-26T08:32:45.501Z,32.26
2019-06-26T08:35:15.937Z,32.41
2019-06-26T08:37:45.603Z,32.44
2019-06-26T08:40:17.680Z,32.43
2019-06-26T08:42:47.037Z,32.41
2019-06-26T08:45:16.907Z,32.46
2019-06-26T08:47:46.495Z,32.70
2019-06-26T08:50:16.239Z,33.05
2019-06-26T08:52:45.613Z,33.32
2019-06-26T08:55:15.402Z,33.58
2019-06-26T08:57:44.772Z,33.80
2019-06-26T09:00:16.073Z,33.70
2019-06-26T09:02:45.523Z,33.63
2019-06-26T09:05:15.240Z,33.69
2019-06-26T09:07:44.628Z,33.78
2019-06-26T09:10:14.158Z,33.81
2019-06-26T09:12:43.607Z,33.79
2019-06-26T09:15:14.136Z,33.93
2019-06-26T09:17:43.569Z,34.02
2019-06-26T09:20:15.844Z,34.12
2019-06-26T09:22:45.564Z,34.22
2019-06-26T09:25:22.035Z,34.20
2019-06-26T09:27:46.629Z,34.20
2019-06-26T09:30:16.121Z,34.23
2019-06-26T09:32:45.614Z,34.27
2019-06-26T09:35:15.033Z,34.20
2019-06-26T09:37:44.579Z,34.14
2019-06-26T09:40:14.078Z,34.16
2019-06-26T09:42:43.683Z,34.23
2019-06-26T09:45:14.159Z,34.39
2019-06-26T09:47:43.908Z,34.51
2019-06-26T09:50:14.081Z,34.53
2019-06-26T09:52:43.663Z,34.50
2019-06-26T09:55:15.508Z,34.61
2019-06-26T09:57:44.880Z,35.03
2019-06-26T10:00:19.932Z,35.38
2019-06-26T10:02:49.636Z,35.54
2019-06-26T10:05:19.211Z,35.70
2019-06-26T10:07:48.689Z,35.86
2019-06-26T10:10:18.321Z,35.85
2019-06-26T10:12:47.876Z,35.94
2019-06-26T10:15:18.041Z,36.06
2019-06-26T10:17:47.753Z,36.20
2019-06-26T10:20:17.205Z,36.25
2019-06-26T10:22:46.727Z,36.31
2019-06-26T10:25:17.050Z,36.33
2019-06-26T10:27:46.449Z,36.13
2019-06-26T10:30:16.290Z,36.13
2019-06-26T10:32:46.782Z,35.81
2019-06-26T10:35:16.526Z,35.70
2019-06-26T10:37:45.941Z,35.75
2019-06-26T10:40:16.554Z,35.91
2019-06-26T10:42:46.241Z,36.06
2019-06-26T10:45:15.970Z,36.12
2019-06-26T10:47:45.372Z,36.21
2019-06-26T10:50:15.094Z,36.36
2019-06-26T10:52:44.741Z,36.59
2019-06-26T10:55:14.482Z,36.36
2019-06-26T10:57:43.942Z,36.21
2019-06-26T11:00:14.505Z,35.98
2019-06-26T11:02:43.990Z,35.89
2019-06-26T11:05:15.012Z,35.84
2019-06-26T11:07:44.787Z,35.90
2019-06-26T11:10:14.560Z,36.15
2019-06-26T11:12:43.965Z,36.56
2019-06-26T11:15:14.630Z,36.60
2019-06-26T11:17:44.041Z,36.64
2019-06-26T11:20:14.498Z,36.83
2019-06-26T11:22:43.884Z,36.95
2019-06-26T11:25:14.415Z,37.14
2019-06-26T11:27:43.920Z,37.14
2019-06-26T11:30:14.859Z,37.33
2019-06-26T11:32:44.249Z,37.40
2019-06-26T11:35:16.209Z,37.02
2019-06-26T11:37:45.894Z,36.32
2019-06-26T11:40:16.649Z,35.86
2019-06-26T11:42:46.238Z,35.92
2019-06-26T11:45:16.116Z,35.96
2019-06-26T11:47:46.131Z,35.88
2019-06-26T11:50:17.399Z,35.84
2019-06-26T11:52:46.914Z,36.00
2019-06-26T11:55:16.909Z,36.32
2019-06-26T11:57:46.428Z,36.49
2019-06-26T12:00:19.178Z,36.26
2019-06-26T12:02:48.613Z,36.11
2019-06-26T12:05:18.645Z,36.09
2019-06-26T12:07:48.010Z,36.17
2019-06-26T12:10:17.931Z,36.56
2019-06-26T12:12:47.359Z,36.61
2019-06-26T12:15:19.483Z,36.76
2019-06-26T12:17:49.249Z,37.09
2019-06-26T12:20:19.827Z,37.15
2019-06-26T12:22:49.476Z,36.99
2019-06-26T12:25:19.270Z,36.90
2019-06-26T12:28:02.288Z,36.73
2019-06-26T12:30:32.127Z,36.50
2019-06-26T12:33:03.653Z,36.49
2019-06-26T12:35:32.619Z,36.67
2019-06-26T12:38:02.121Z,37.06
2019-06-26T12:40:31.620Z,37.06
2019-06-26T12:43:01.222Z,36.99
2019-06-26T12:45:30.634Z,36.77
2019-06-26T12:48:00.137Z,36.61
2019-06-26T12:50:35.525Z,36.50
2019-06-26T12:53:00.688Z,36.48
2019-06-26T12:55:32.917Z,36.57
2019-06-26T12:58:12.661Z,36.81
2019-06-26T13:00:32.619Z,37.03
2019-06-26T13:03:02.234Z,37.05
2019-06-26T13:05:31.651Z,36.84
2019-06-26T13:08:01.107Z,36.16
2019-06-26T13:10:30.569Z,36.16
2019-06-26T13:13:00.263Z,36.09
2019-06-26T13:15:29.637Z,35.95
2019-06-26T13:18:01.433Z,36.13
2019-06-26T13:20:30.528Z,36.44
2019-06-26T13:23:00.214Z,36.80
2019-06-26T13:25:29.647Z,36.80
2019-06-26T13:27:59.375Z,36.93
2019-06-26T13:30:37.285Z,36.62
2019-06-26T13:33:07.107Z,36.43
2019-06-26T13:35:36.473Z,36.56
2019-06-26T13:38:06.264Z,36.62
2019-06-26T13:40:35.626Z,36.62
2019-06-26T13:43:05.394Z,36.78
2019-06-26T13:45:34.751Z,36.78
2019-06-26T13:48:04.276Z,36.85
2019-06-26T13:50:33.931Z,36.85
2019-06-26T13:53:03.302Z,36.63
2019-06-26T13:55:33.253Z,36.32
2019-06-26T13:58:02.645Z,36.07
2019-06-26T14:00:32.316Z,35.79
2019-06-26T14:03:01.771Z,35.79
2019-06-26T14:05:31.301Z,35.67
2019-06-26T14:08:00.703Z,35.53
2019-06-26T14:10:30.468Z,35.56
2019-06-26T14:12:59.875Z,35.69
2019-06-26T14:15:29.617Z,35.68
2019-06-26T14:17:59.495Z,35.50
2019-06-26T14:20:28.917Z,35.43
2019-06-26T14:22:58.308Z,35.14
2019-06-26T14:25:28.045Z,34.93
2019-06-26T14:27:57.404Z,34.99
2019-06-26T14:30:28.080Z,35.13
2019-06-26T14:32:57.575Z,35.08
2019-06-26T14:35:27.267Z,34.82
2019-06-26T14:37:56.671Z,34.51
2019-06-26T14:40:26.584Z,34.40
2019-06-26T14:42:55.969Z,34.33
2019-06-26T14:45:25.640Z,34.44
2019-06-26T14:47:55.393Z,34.42
2019-06-26T14:50:24.749Z,34.46
2019-06-26T14:52:54.442Z,34.50
2019-06-26T14:55:23.820Z,34.37
2019-06-26T14:57:53.497Z,34.26
2019-06-26T15:00:23.536Z,34.31
2019-06-26T15:02:52.985Z,34.48
2019-06-26T15:05:22.630Z,34.50
2019-06-26T15:07:52.394Z,34.28
2019-06-26T15:10:22.451Z,33.99
2019-06-26T15:12:51.862Z,33.94
2019-06-26T15:15:21.679Z,33.75
2019-06-26T15:17:51.416Z,33.75
2019-06-26T15:20:20.895Z,33.81
2019-06-26T15:22:50.412Z,33.76
2019-06-26T15:25:20.126Z,33.62
2019-06-26T15:27:49.850Z,33.38
2019-06-26T15:30:20.895Z,33.20
2019-06-26T15:32:50.473Z,33.12
2019-06-26T15:35:19.832Z,32.93
2019-06-26T15:37:49.460Z,32.77
2019-06-26T15:40:18.924Z,32.74
2019-06-26T15:42:49.169Z,32.62
2019-06-26T15:45:20.824Z,32.54
2019-06-26T15:47:49.839Z,32.62
2019-06-26T15:50:19.507Z,32.65
2019-06-26T15:52:48.955Z,32.60
2019-06-26T15:55:18.757Z,32.53
2019-06-26T15:57:48.118Z,32.52
2019-06-26T16:00:17.961Z,32.42
2019-06-26T16:02:47.475Z,32.22
2019-06-26T16:05:16.960Z,32.09
2019-06-26T16:07:46.435Z,32.05
2019-06-26T16:10:16.851Z,32.02
2019-06-26T16:12:46.560Z,31.96
2019-06-26T16:15:16.175Z,31.93
2019-06-26T16:17:58.930Z,31.86
2019-06-26T16:20:28.732Z,31.83
2019-06-26T16:22:58.538Z,31.77
2019-06-26T16:25:28.232Z,31.70
2019-06-26T16:28:05.189Z,31.71
2019-06-26T16:30:29.019Z,31.67
2019-06-26T16:33:04.247Z,31.56
2019-06-26T16:35:33.656Z,31.51
2019-06-26T16:38:03.119Z,31.48
2019-06-26T16:40:32.478Z,31.51
2019-06-26T16:43:01.903Z,31.49
2019-06-26T16:45:31.584Z,31.43
2019-06-26T16:48:00.973Z,31.31
2019-06-26T16:50:30.654Z,31.28
2019-06-26T16:53:00.060Z,31.26
2019-06-26T16:55:29.835Z,31.19
2019-06-26T16:57:59.186Z,31.04
2019-06-26T17:00:29.218Z,30.99
2019-06-26T17:02:58.605Z,30.97
2019-06-26T17:05:27.992Z,30.99
2019-06-26T17:07:57.556Z,30.95
2019-06-26T17:10:27.305Z,30.80
2019-06-26T17:12:56.767Z,30.66
2019-06-26T17:15:26.355Z,30.56
2019-06-26T17:17:55.825Z,30.50
2019-06-26T17:20:25.203Z,30.46
2019-06-26T17:23:04.943Z,30.38
2019-06-26T17:25:25.880Z,30.26
2019-06-26T17:27:55.243Z,30.14
2019-06-26T17:30:24.846Z,29.97
2019-06-26T17:32:54.280Z,29.97
2019-06-26T17:35:24.012Z,29.85
2019-06-26T17:37:53.665Z,29.67
2019-06-26T17:40:23.035Z,29.55
2019-06-26T17:42:52.727Z,29.41
2019-06-26T17:45:22.197Z,29.32
2019-06-26T17:47:51.690Z,29.24
2019-06-26T17:50:21.159Z,29.14
2019-06-26T17:52:50.642Z,29.09
2019-06-26T17:55:20.315Z,29.00
2019-06-26T17:57:49.870Z,28.88
2019-06-26T18:00:22.461Z,28.67
2019-06-26T18:02:51.833Z,28.58
2019-06-26T18:05:21.338Z,28.49
2019-06-26T18:07:50.698Z,28.45
2019-06-26T18:10:20.395Z,28.41
2019-06-26T18:12:49.863Z,28.41
2019-06-26T18:15:19.247Z,28.40
2019-06-26T18:17:48.883Z,28.29
2019-06-26T18:20:18.724Z,28.17
2019-06-26T18:22:48.132Z,28.06
2019-06-26T18:25:17.846Z,27.92
2019-06-26T18:27:47.310Z,27.78
2019-06-26T18:30:17.118Z,27.45
2019-06-26T18:32:46.947Z,27.45
2019-06-26T18:35:16.303Z,27.27
2019-06-26T18:37:45.765Z,27.15
2019-06-26T18:40:15.366Z,26.99
2019-06-26T18:42:45.041Z,26.88
2019-06-26T18:45:15.184Z,26.80
2019-06-26T18:47:44.851Z,26.75
2019-06-26T18:50:15.152Z,26.68
2019-06-26T18:52:44.807Z,26.52
2019-06-26T18:55:15.171Z,26.36
2019-06-26T18:57:44.591Z,26.23
2019-06-26T19:00:15.498Z,26.23
2019-06-26T19:02:44.882Z,26.19
2019-06-26T19:05:15.224Z,26.10
2019-06-26T19:07:44.840Z,25.98
2019-06-26T19:10:15.295Z,25.82
2019-06-26T19:12:44.980Z,25.66
2019-06-26T19:15:15.273Z,25.58
2019-06-26T19:17:44.945Z,25.58
2019-06-26T19:20:15.588Z,25.43
2019-06-26T19:22:47.458Z,25.29
2019-06-26T19:25:16.518Z,25.19
2019-06-26T19:27:47.886Z,25.13
2019-06-26T19:30:20.268Z,25.03
2019-06-26T19:32:49.922Z,24.99
2019-06-26T19:35:20.273Z,24.96
2019-06-26T19:37:49.980Z,24.90
2019-06-26T19:40:19.464Z,24.83
2019-06-26T19:42:49.129Z,24.68
2019-06-26T19:45:18.870Z,24.56
2019-06-26T19:47:48.257Z,24.36
2019-06-26T19:50:18.794Z,24.14
2019-06-26T19:52:48.207Z,24.01
2019-06-26T19:55:18.622Z,23.90
2019-06-26T19:57:48.079Z,23.72
2019-06-26T20:00:18.432Z,23.56
2019-06-26T20:02:48.033Z,23.44
2019-06-26T20:05:17.462Z,23.36
2019-06-26T20:07:46.926Z,23.19
2019-06-26T20:10:16.855Z,23.06
2019-06-26T20:12:46.370Z,23.03
2019-06-26T20:15:16.090Z,22.99
2019-06-26T20:17:45.485Z,22.87
2019-06-26T20:20:15.385Z,22.74
2019-06-26T20:22:45.034Z,22.65
2019-06-26T20:25:15.619Z,22.58
2019-06-26T20:27:45.117Z,22.47
2019-06-26T20:30:15.410Z,22.31
2019-06-26T20:32:45.041Z,22.16
2019-06-26T20:35:15.301Z,22.06
2019-06-26T20:37:44.689Z,22.08
2019-06-26T20:40:15.584Z,22.01
2019-06-26T20:42:45.072Z,21.94
2019-06-26T20:45:15.363Z,21.74
2019-06-26T20:47:45.970Z,21.53
2019-06-26T20:50:15.467Z,21.43
2019-06-26T20:52:45.090Z,21.38
2019-06-26T20:55:14.452Z,21.39
2019-06-26T20:57:44.104Z,21.34
2019-06-26T21:00:13.536Z,21.28
2019-06-26T21:02:43.148Z,21.28
2019-06-26T21:05:12.543Z,21.31
2019-06-26T21:07:42.287Z,21.44
2019-06-26T21:10:12.047Z,21.52
2019-06-26T21:12:41.432Z,21.53
2019-06-26T21:15:11.135Z,21.54
2019-06-26T21:17:40.767Z,21.56
2019-06-26T21:20:10.175Z,21.57
2019-06-26T21:22:39.539Z,21.56
2019-06-26T21:25:18.344Z,21.57
2019-06-26T21:27:42.112Z,21.59
2019-06-26T21:30:12.777Z,21.70
2019-06-26T21:32:42.334Z,21.77
2019-06-26T21:35:12.047Z,21.84
2019-06-26T21:37:41.464Z,21.90
2019-06-26T21:40:11.340Z,21.96
2019-06-26T21:42:41.138Z,21.97
2019-06-26T21:45:10.593Z,21.96
2019-06-26T21:47:40.247Z,21.83
2019-06-26T21:50:11.282Z,21.62
2019-06-26T21:52:40.686Z,21.40
2019-06-26T21:55:10.334Z,21.20
2019-06-26T21:57:57.393Z,20.99
2019-06-26T22:00:44.429Z,20.82
2019-06-26T22:03:31.526Z,20.71
2019-06-26T22:06:15.649Z,20.67
2019-06-26T22:08:55.659Z,20.58
2019-06-26T22:11:25.231Z,20.50
2019-06-26T22:13:54.648Z,20.43
2019-06-26T22:16:24.568Z,20.37
2019-06-26T22:18:55.486Z,20.28
2019-06-26T22:21:24.941Z,20.22
2019-06-26T22:23:54.446Z,20.19
2019-06-26T22:26:24.287Z,20.11
2019-06-26T22:28:53.929Z,20.01
2019-06-26T22:31:23.659Z,19.96
2019-06-26T22:33:53.351Z,19.92
2019-06-26T22:36:22.766Z,19.91
2019-06-26T22:38:52.296Z,19.95
2019-06-26T22:41:21.669Z,19.91
2019-06-26T22:43:51.219Z,19.94
2019-06-26T22:46:20.927Z,19.91
2019-06-26T22:48:50.379Z,19.80
2019-06-26T22:51:19.877Z,19.72
2019-06-26T22:53:49.298Z,19.67
2019-06-26T22:56:18.698Z,19.56
2019-06-26T22:58:48.293Z,19.44
2019-06-26T23:01:17.792Z,19.37
2019-06-26T23:03:47.378Z,19.34
2019-06-26T23:06:16.928Z,19.34
2019-06-26T23:08:46.381Z,19.37
2019-06-26T23:11:15.818Z,19.44
2019-06-26T23:13:45.337Z,19.48
2019-06-26T23:16:15.615Z,19.48
2019-06-26T23:18:45.049Z,19.48
2019-06-26T23:21:15.796Z,19.46
2019-06-26T23:23:45.350Z,19.43
2019-06-26T23:26:24.082Z,19.43
2019-06-26T23:28:46.806Z,19.43
2019-06-26T23:31:16.540Z,19.42
2019-06-26T23:33:45.918Z,19.37
2019-06-26T23:36:15.827Z,19.30
2019-06-26T23:38:46.466Z,19.28
2019-06-26T23:41:18.089Z,19.22
2019-06-26T23:43:47.288Z,19.16
2019-06-26T23:46:16.995Z,19.17
2019-06-26T23:48:46.598Z,19.18
2019-06-26T23:51:15.959Z,19.19
2019-06-26T23:53:45.467Z,19.22
2019-06-26T23:56:15.763Z,19.23
2019-06-26T23:58:45.427Z,19.21
